Time;durP1;ratioP1;P1;durP2;ratioP2;P2;SDS_P1;SDS_P2;PMS_P1;PMS_P2;Temp;Humidity;BMP_temperature;BMP_pressure;BME280_temperature;BME280_humidity;BME280_pressure;Samples;Min_cycle;Max_cycle;Signal;HPM_P1;HPM_P2
2024/03/30 14:17:57;;;;;;;9.98;1.98;;;;;;;21.81;36.22;98644.72;4637525;27;20731;-54
2024/03/30 14:20:08;;;;;;;7.20;2.20;;;;;;;21.80;35.94;98645.94;4633542;27;20039;-53
2024/03/30 14:22:18;;;;;;;10.40;2.00;;;;;;;21.81;35.73;98647.59;4616042;27;20051;-50
2024/03/30 14:24:28;;;;;;;11.23;1.70;;;;;;;21.81;36.08;98649.63;4617484;27;20042;-53
2024/03/30 14:26:39;;;;;;;8.77;2.08;;;;;;;21.82;35.73;98651.25;4608852;27;20027;-53
2024/03/30 14:28:51;;;;;;;11.27;2.10;;;;;;;21.82;35.62;98649.22;4598243;27;20044;-48
2024/03/30 14:31:01;;;;;;;6.80;1.80;;;;;;;21.82;34.84;98649.22;4618571;27;20875;-49
2024/03/30 14:33:12;;;;;;;10.75;1.83;;;;;;;21.83;34.67;98647.16;4581966;27;20028;-49
2024/03/30 14:35:22;;;;;;;7.10;1.92;;;;;;;21.82;34.57;98646.34;4590187;27;20067;-50
2024/03/30 14:37:32;;;;;;;6.55;1.77;;;;;;;21.82;34.20;98652.06;4581041;27;20043;-49
2024/03/30 14:39:43;;;;;;;8.82;1.88;;;;;;;21.82;34.22;98646.34;4607640;27;20031;-48
2024/03/30 14:41:53;;;;;;;10.02;1.70;;;;;;;21.85;33.94;98659.84;4615841;27;20039;-50
2024/03/30 14:44:04;;;;;;;8.50;1.75;;;;;;;21.85;33.58;98668.47;4618416;27;20035;-49
2024/03/30 14:46:14;;;;;;;10.55;1.73;;;;;;;21.86;33.54;98670.13;4585046;22;20129;-48
2024/03/30 14:48:25;;;;;;;9.00;1.92;;;;;;;21.87;33.81;98674.63;4515870;28;20034;-47
2024/03/30 14:50:35;;;;;;;7.43;2.08;;;;;;;21.88;33.93;98673.38;4525568;28;20029;-48
2024/03/30 14:52:46;;;;;;;8.23;1.88;;;;;;;21.88;33.98;98679.09;4524883;28;20037;-52
2024/03/30 14:54:56;;;;;;;11.77;2.30;;;;;;;21.89;34.19;98675.00;4516538;28;20100;-47
2024/03/30 14:57:07;;;;;;;9.77;2.05;;;;;;;21.89;34.31;98663.53;4527031;28;20053;-49
2024/03/30 14:59:19;;;;;;;7.03;1.77;;;;;;;21.89;34.23;98675.00;4516877;28;20049;-51
2024/03/30 15:01:29;;;;;;;8.30;1.88;;;;;;;21.88;34.06;98661.88;4525733;28;20033;-48
2024/03/30 15:03:43;;;;;;;7.65;1.67;;;;;;;21.90;33.90;98665.16;4511950;28;20149;-48
2024/03/30 15:05:53;;;;;;;9.23;2.22;;;;;;;21.89;33.63;98659.81;4524145;28;20038;-48
2024/03/30 15:08:04;;;;;;;6.68;2.00;;;;;;;21.90;33.60;98664.31;4493709;28;20022;-47
2024/03/30 15:10:14;;;;;;;9.45;1.95;;;;;;;21.88;33.88;98661.88;4525449;28;20026;-48
2024/03/30 15:12:25;;;;;;;9.20;2.05;;;;;;;21.90;33.87;98667.19;4516753;28;20033;-48
2024/03/30 15:14:35;;;;;;;9.15;1.75;;;;;;;21.91;33.82;98666.78;4524594;28;20034;-48
2024/03/30 15:16:46;;;;;;;9.25;1.75;;;;;;;21.91;33.54;98668.84;4511941;28;20077;-49
2024/03/30 15:18:56;;;;;;;6.45;1.70;;;;;;;21.92;33.90;98668.41;4525558;28;20031;-48
2024/03/30 15:21:08;;;;;;;7.60;2.10;;;;;;;21.92;33.91;98667.59;4526085;28;20044;-47
2024/03/30 15:23:19;;;;;;;6.65;2.00;;;;;;;21.92;34.15;98670.47;4525046;28;20041;-48
2024/03/30 15:25:29;;;;;;;8.32;1.85;;;;;;;21.93;33.62;98680.72;4507084;28;20038;-48
2024/03/30 15:27:39;;;;;;;8.38;2.28;;;;;;;21.94;33.84;98665.94;4522602;28;20026;-50
2024/03/30 15:32:25;;;;;;;6.43;1.85;;;;;;;21.94;34.40;98673.75;4513648;28;20111;-47
2024/03/30 15:34:35;;;;;;;9.23;2.05;;;;;;;21.93;34.42;98687.28;4504187;28;20068;-48
2024/03/30 15:36:46;;;;;;;6.57;1.70;;;;;;;21.94;34.31;98673.75;4504815;28;20156;-47
2024/03/30 15:38:56;;;;;;;5.18;1.85;;;;;;;21.93;34.22;98675.78;4512177;28;20045;-48
2024/03/30 15:41:07;;;;;;;7.50;1.98;;;;;;;21.94;34.63;98674.56;4500217;28;20038;-47
2024/03/30 15:43:17;;;;;;;8.80;2.10;;;;;;;21.94;34.53;98677.44;4512964;28;20042;-48
2024/03/30 15:45:27;;;;;;;8.95;1.98;;;;;;;21.94;34.88;98677.44;4511987;28;20473;-49
2024/03/30 15:47:38;;;;;;;7.22;2.10;;;;;;;21.95;34.49;98672.50;4488723;28;20042;-47
2024/03/30 15:49:48;;;;;;;7.20;2.08;;;;;;;21.95;34.95;98684.81;4504089;28;20026;-48
2024/03/30 15:51:58;;;;;;;8.23;1.90;;;;;;;21.95;35.84;98684.81;4512350;28;20073;-53
2024/03/30 15:54:09;;;;;;;10.73;2.55;;;;;;;21.94;36.11;98683.19;4514132;28;20045;-47
2024/03/30 15:56:19;;;;;;;10.68;2.83;;;;;;;21.96;36.59;98685.63;4511944;28;20034;-47
2024/03/30 15:58:33;;;;;;;8.30;2.00;;;;;;;21.96;37.14;98677.03;4482116;28;20093;-47
2024/03/30 16:00:44;;;;;;;11.88;2.92;;;;;;;21.95;37.13;98684.81;4513407;28;20036;-48
2024/03/30 16:02:54;;;;;;;8.65;2.40;;;;;;;21.95;36.74;98690.56;4513043;28;20064;-49
2024/03/30 16:05:05;;;;;;;6.55;2.10;;;;;;;21.96;36.86;98688.50;4512188;28;20045;-47
2024/03/30 16:07:19;;;;;;;10.73;1.95;;;;;;;21.95;36.88;98689.72;4512251;28;20045;-48
2024/03/30 16:09:29;;;;;;;8.23;2.13;;;;;;;21.96;36.27;98697.91;4513302;28;20040;-50
2024/03/30 16:11:40;;;;;;;7.55;2.15;;;;;;;21.95;36.45;98698.34;4514040;28;20041;-49
2024/03/30 16:13:50;;;;;;;11.63;1.90;;;;;;;21.95;36.09;98702.03;4513375;28;20125;-48
2024/03/30 16:16:00;;;;;;;12.93;2.60;;;;;;;21.95;36.43;98710.66;4496567;28;20062;-49
2024/03/30 16:18:11;;;;;;;10.90;1.92;;;;;;;21.96;36.55;98715.16;4497804;28;20540;-48
2024/03/30 16:20:21;;;;;;;12.40;2.33;;;;;;;21.97;37.01;98721.72;4511690;28;20030;-49
2024/03/30 16:22:32;;;;;;;10.15;2.10;;;;;;;21.97;37.00;98724.59;4509512;28;20037;-47
2024/03/30 16:24:43;;;;;;;10.50;2.40;;;;;;;21.95;36.70;98730.78;4488756;28;20052;-48
2024/03/30 16:26:53;;;;;;;10.68;2.05;;;;;;;21.94;36.52;98726.28;4504215;28;20335;-49
2024/03/30 16:29:04;;;;;;;5.90;2.05;;;;;;;21.96;36.39;98732.38;4511961;28;20042;-50
2024/03/30 16:31:14;;;;;;;6.90;3.03;;;;;;;21.96;36.46;98752.50;4499232;28;20633;-48
2024/03/30 16:33:25;;;;;;;9.82;3.03;;;;;;;21.96;36.45;98745.97;4498579;28;20105;-48
2024/03/30 16:35:35;;;;;;;10.43;3.20;;;;;;;21.95;36.12;98753.75;4511674;28;20132;-49
2024/03/30 16:37:45;;;;;;;8.27;3.17;;;;;;;21.96;36.12;98757.44;4498569;28;20168;-48
2024/03/30 16:39:56;;;;;;;9.02;3.20;;;;;;;21.94;35.92;98757.88;4509135;28;20088;-47
2024/03/30 16:42:07;;;;;;;6.97;2.58;;;;;;;21.96;35.88;98766.06;4510876;28;20034;-47
2024/03/30 16:44:26;;;;;;;9.82;2.90;;;;;;;21.96;35.65;98769.75;4502881;28;20041;-48
2024/03/30 16:46:36;;;;;;;8.88;2.70;;;;;;;21.95;35.75;98768.13;4491838;28;20080;-48
2024/03/30 16:48:47;;;;;;;7.97;2.47;;;;;;;21.96;36.12;98768.94;4511936;28;20043;-48
2024/03/30 16:51:00;;;;;;;9.38;2.65;;;;;;;21.97;36.44;98774.25;4498396;28;20093;-49
2024/03/30 16:53:11;;;;;;;8.02;2.40;;;;;;;21.96;36.23;98775.47;4481755;28;20129;-48
2024/03/30 16:55:21;;;;;;;8.05;2.78;;;;;;;21.96;36.12;98781.22;4512097;28;20037;-47
2024/03/30 16:57:32;;;;;;;7.07;2.40;;;;;;;21.96;36.13;98778.34;4496269;28;20042;-48
2024/03/30 16:59:42;;;;;;;8.73;2.80;;;;;;;21.96;36.24;98780.44;4511473;28;20030;-48
2024/03/30 17:01:53;;;;;;;8.65;2.50;;;;;;;21.96;36.05;98786.97;4512094;28;20076;-50
2024/03/30 17:04:03;;;;;;;1.42;0.82;;;;;;;22.23;43.71;98788.03;4512802;28;20387;-49
2024/03/30 17:06:14;;;;;;;1.23;0.50;;;;;;;22.39;43.31;98796.09;4512400;28;20131;-48
2024/03/30 17:08:24;;;;;;;1.35;0.43;;;;;;;22.49;43.32;98797.25;4512328;28;20041;-47
2024/03/30 17:10:36;;;;;;;1.38;0.50;;;;;;;22.55;43.11;98804.25;4496668;28;20086;-48
2024/03/30 17:12:47;;;;;;;1.95;0.50;;;;;;;22.60;43.34;98807.47;4511373;28;20061;-47
2024/03/30 17:14:57;;;;;;;0.73;0.50;;;;;;;22.67;43.20;98809.47;4510119;28;20036;-46
2024/03/30 17:17:07;;;;;;;0.93;0.50;;;;;;;22.67;42.83;98815.22;4484323;28;20062;-49
2024/03/30 17:19:18;;;;;;;2.00;0.70;;;;;;;22.72;42.85;98817.66;4472732;28;20049;-47
2024/03/30 17:21:29;;;;;;;1.30;0.60;;;;;;;22.74;42.83;98812.28;4463009;28;20038;-50
2024/03/30 17:23:41;;;;;;;2.83;0.50;;;;;;;22.75;42.88;98822.53;4471734;28;20616;-51
2024/03/30 17:25:52;;;;;;;1.55;0.45;;;;;;;22.73;42.66;98820.09;4472751;28;20034;-51
2024/03/30 17:28:03;;;;;;;1.23;0.60;;;;;;;22.74;42.83;98832.44;4456204;28;20043;-51
2024/03/30 17:30:14;;;;;;;1.17;0.40;;;;;;;22.74;42.84;98826.69;4460399;28;20043;-54
2024/03/30 17:32:25;;;;;;;1.35;0.50;;;;;;;22.75;43.06;98831.19;4463357;28;20940;-50
2024/03/30 17:34:35;;;;;;;2.60;0.70;;;;;;;22.74;43.06;98835.31;4459799;28;20427;-51
2024/03/30 17:36:45;;;;;;;2.10;0.50;;;;;;;22.74;43.07;98832.44;4461901;28;20109;-54
2024/03/30 17:38:56;;;;;;;1.92;0.70;;;;;;;22.74;43.06;98841.06;4460424;28;20166;-52
2024/03/30 17:41:06;;;;;;;2.08;0.52;;;;;;;22.72;43.20;98840.66;4465550;28;20858;-49
2024/03/30 17:43:17;;;;;;;1.45;0.65;;;;;;;22.72;43.11;98837.78;4476390;28;20580;-51
2024/03/30 17:45:27;;;;;;;1.02;0.45;;;;;;;22.72;43.08;98855.84;4466166;28;20030;-48
2024/03/30 17:47:38;;;;;;;1.67;0.60;;;;;;;22.77;43.08;98851.72;4467102;28;20038;-48
2024/03/30 19:08:43;;;;;;;2.00;0.50;;;;;;;23.36;42.47;98926.00;4503593;28;20814;-49
2024/03/30 19:10:54;;;;;;;1.10;0.57;;;;;;;23.30;42.70;98921.97;4506968;28;20394;-49
2024/03/30 19:13:05;;;;;;;2.90;0.60;;;;;;;23.31;42.52;98923.56;4488504;28;20054;-51
2024/03/30 19:15:16;;;;;;;1.33;0.45;;;;;;;23.26;42.65;98914.59;4492250;28;20042;-51
2024/03/30 19:17:36;;;;;;;2.03;0.50;;;;;;;23.28;42.49;98917.84;4496675;28;20439;-51
2024/03/30 19:19:46;;;;;;;1.77;0.60;;;;;;;23.29;42.42;98922.38;4496561;28;21574;-49
2024/03/30 19:21:57;;;;;;;1.20;0.50;;;;;;;23.29;42.57;98925.25;4498602;28;20053;-49
2024/03/30 19:24:07;;;;;;;1.17;0.50;;;;;;;23.27;42.64;98916.22;4495934;28;20125;-53
2024/03/30 19:26:18;;;;;;;0.40;0.35;;;;;;;23.28;42.55;98920.72;4496893;28;20047;-51
2024/03/30 19:28:29;;;;;;;0.68;0.40;;;;;;;23.25;42.64;98919.53;4497277;28;20036;-50
2024/03/30 19:30:40;;;;;;;1.00;0.40;;;;;;;23.26;42.59;98920.34;4497673;28;20146;-53
2024/03/30 19:32:50;;;;;;;1.27;0.50;;;;;;;23.25;42.82;98925.28;4496788;28;20058;-50
2024/03/30 19:35:03;;;;;;;1.08;0.50;;;;;;;23.17;42.79;98915.06;4495832;28;20621;-50
2024/03/30 19:37:13;;;;;;;1.45;0.50;;;;;;;23.19;42.83;98923.25;4497741;28;20038;-49
2024/03/30 19:39:24;;;;;;;1.05;0.43;;;;;;;23.19;42.76;98917.50;4532803;28;20053;-50
2024/03/30 19:41:39;;;;;;;1.00;0.55;;;;;;;23.19;42.64;98921.22;4534823;28;20041;-50
2024/03/30 19:43:49;;;;;;;1.42;0.43;;;;;;;23.18;42.70;98919.56;4531881;28;20828;-51
2024/03/30 19:45:59;;;;;;;0.85;0.60;;;;;;;23.19;42.58;98923.25;4520946;28;20088;-50
2024/03/30 19:48:10;;;;;;;1.58;0.50;;;;;;;23.17;42.39;98923.69;4529859;28;20037;-50
2024/03/30 19:50:20;;;;;;;0.98;0.47;;;;;;;23.16;42.38;98916.31;4534801;28;20033;-51
2024/03/30 19:52:31;;;;;;;0.75;0.35;;;;;;;23.14;42.74;98921.66;4534836;28;20033;-49
2024/03/30 19:54:45;;;;;;;1.45;0.75;;;;;;;23.12;42.75;98923.34;4534970;28;20044;-51
2024/03/30 19:56:55;;;;;;;1.25;0.50;;;;;;;23.07;42.93;98918.81;4534220;28;20051;-50
2024/03/30 19:59:07;;;;;;;1.45;0.65;;;;;;;23.10;42.76;98914.31;4534449;28;20032;-50
2024/03/30 20:01:19;;;;;;;0.75;0.50;;;;;;;23.10;42.83;98900.72;4534168;28;20080;-50
2024/03/30 20:03:29;;;;;;;1.23;0.50;;;;;;;23.09;42.66;98899.09;4519334;28;20044;-50
2024/03/30 20:05:40;;;;;;;1.25;0.60;;;;;;;23.09;42.55;98901.13;4525448;28;20508;-49
2024/03/30 20:07:50;;;;;;;0.60;0.50;;;;;;;23.08;42.76;98902.38;4534570;28;20117;-50
2024/03/30 20:10:00;;;;;;;1.27;0.60;;;;;;;23.07;42.52;98906.53;4534522;28;20044;-50
2024/03/30 20:12:11;;;;;;;1.17;0.50;;;;;;;23.04;42.63;98908.16;4533363;28;20034;-50
2024/03/30 20:14:21;;;;;;;0.93;0.52;;;;;;;23.04;42.85;98916.81;4534173;28;20037;-49
2024/03/30 20:16:32;;;;;;;2.28;0.60;;;;;;;23.01;42.85;98923.41;4515644;28;20479;-50
2024/03/30 20:18:43;;;;;;;1.75;0.70;;;;;;;23.01;42.95;98925.47;4534397;28;20111;-51
2024/03/30 20:20:57;;;;;;;2.47;1.40;;;;;;;22.70;39.05;98938.03;4516871;28;20060;-49
2024/03/30 20:23:07;;;;;;;5.32;2.38;;;;;;;22.53;35.39;98930.34;4531699;28;20037;-51
2024/03/30 20:25:18;;;;;;;5.80;2.90;;;;;;;22.43;34.76;98939.81;4534336;28;20477;-53
2024/03/30 20:27:28;;;;;;;4.72;2.88;;;;;;;22.36;34.95;98937.81;4533810;28;20056;-53
2024/03/30 20:29:39;;;;;;;6.10;2.50;;;;;;;22.32;35.03;98942.78;4534282;28;20065;-53
2024/03/30 20:31:50;;;;;;;5.75;2.70;;;;;;;22.29;35.04;98951.41;4534657;28;20041;-49
2024/03/30 20:34:00;;;;;;;4.03;2.38;;;;;;;22.24;34.74;98921.06;4532970;28;20030;-50
2024/03/30 20:36:11;;;;;;;6.03;2.45;;;;;;;22.21;34.92;98914.06;4518424;28;20049;-51
2024/03/30 20:38:22;;;;;;;5.38;2.58;;;;;;;22.20;34.98;98903.00;4534344;28;20037;-52
2024/03/30 20:40:32;;;;;;;4.55;2.15;;;;;;;22.17;35.25;98904.66;4535590;28;20558;-53
2024/03/30 20:42:48;;;;;;;3.72;2.30;;;;;;;22.15;35.50;98904.25;4533966;28;20096;-49
2024/03/30 20:44:59;;;;;;;6.03;3.20;;;;;;;22.14;35.20;98904.66;4533774;28;20048;-50
2024/03/30 20:47:09;;;;;;;4.85;3.10;;;;;;;22.13;35.29;98909.63;4533264;28;20560;-50
2024/03/30 20:49:20;;;;;;;4.65;2.65;;;;;;;22.13;34.98;98924.00;4533406;28;20203;-50
2024/03/30 20:51:30;;;;;;;5.03;2.13;;;;;;;22.11;34.98;98929.31;4533641;28;20027;-49
2024/03/30 20:53:41;;;;;;;4.72;2.70;;;;;;;22.08;35.21;98915.78;4534189;28;20041;-49
2024/03/30 20:55:51;;;;;;;4.57;2.60;;;;;;;22.11;35.15;98922.75;4533323;28;20169;-50
2024/03/30 20:58:02;;;;;;;4.13;2.35;;;;;;;22.09;35.04;98911.69;4509313;28;20120;-51
2024/03/30 21:00:13;;;;;;;4.20;2.15;;;;;;;22.08;35.48;98900.59;4515739;28;20316;-50
2024/03/30 21:02:25;;;;;;;5.35;2.40;;;;;;;22.07;35.40;98898.97;4534227;28;20171;-51
2024/03/30 21:04:35;;;;;;;3.58;2.22;;;;;;;22.07;35.11;98893.22;4532903;28;20029;-50
2024/03/30 21:06:45;;;;;;;6.32;2.30;;;;;;;22.06;35.33;98901.03;4533467;28;20544;-49
2024/03/30 21:08:56;;;;;;;5.50;2.35;;;;;;;22.05;35.29;98902.28;4520185;28;20513;-50
2024/03/30 21:11:09;;;;;;;6.68;2.58;;;;;;;22.05;35.63;98908.00;4534130;28;20044;-51
2024/03/30 21:13:19;;;;;;;4.72;2.30;;;;;;;22.05;35.41;98915.81;4533769;28;20032;-49
2024/03/30 21:15:31;;;;;;;5.20;2.60;;;;;;;22.04;35.61;98914.97;4532523;28;20033;-49
2024/03/30 21:17:41;;;;;;;5.72;2.60;;;;;;;22.04;35.26;98923.59;4508375;28;20041;-50
2024/03/30 21:19:52;;;;;;;5.18;2.58;;;;;;;22.04;35.26;98922.81;4535208;28;20033;-54
2024/03/30 21:22:02;;;;;;;5.97;2.60;;;;;;;22.02;35.36;98916.66;4518966;28;20038;-51
2024/03/30 21:24:13;;;;;;;5.35;2.45;;;;;;;22.03;35.04;98924.84;4534506;28;20035;-50
2024/03/30 21:26:23;;;;;;;5.18;2.45;;;;;;;22.03;35.25;98921.16;4533294;28;20430;-50
2024/03/30 21:28:35;;;;;;;5.10;2.40;;;;;;;22.01;35.01;98917.88;4532635;28;20036;-54
2024/03/30 21:30:45;;;;;;;5.82;2.45;;;;;;;22.01;35.19;98930.19;4515145;28;20037;-52
2024/03/30 21:32:56;;;;;;;4.28;2.30;;;;;;;22.01;35.05;98927.31;4509046;28;20534;-55
2024/03/30 21:35:07;;;;;;;4.80;2.58;;;;;;;22.00;35.19;98940.03;4514805;28;20040;-52
2024/03/30 21:37:17;;;;;;;6.07;2.80;;;;;;;22.01;35.66;98937.97;4513419;28;20042;-53
2024/03/30 21:39:28;;;;;;;5.15;2.95;;;;;;;22.00;35.32;98942.91;4518946;28;20524;-50
2024/03/30 21:41:38;;;;;;;7.60;3.00;;;;;;;22.01;35.54;98950.28;4535158;28;20489;-50
2024/03/30 21:43:49;;;;;;;6.30;3.30;;;;;;;21.99;35.21;98944.13;4532855;28;20025;-51
2024/03/30 21:45:59;;;;;;;4.60;2.60;;;;;;;22.00;35.20;98951.53;4534902;28;20042;-51
2024/03/30 21:48:10;;;;;;;4.97;2.97;;;;;;;22.00;34.87;98957.28;4532338;28;20033;-51
2024/03/30 21:50:20;;;;;;;5.35;3.30;;;;;;;22.00;35.34;98959.34;4533399;28;20025;-51
2024/03/30 21:52:31;;;;;;;5.25;3.08;;;;;;;21.99;34.95;98964.25;4534214;28;20060;-50
2024/03/30 21:54:41;;;;;;;4.38;2.85;;;;;;;21.98;35.33;98974.09;4531539;28;20382;-50
2024/03/30 21:56:52;;;;;;;6.70;3.00;;;;;;;21.99;35.02;98972.88;4531657;28;20059;-52
2024/03/30 21:59:02;;;;;;;5.88;2.90;;;;;;;21.99;34.90;98969.19;4519406;28;20038;-51
2024/03/30 22:01:13;;;;;;;4.80;2.72;;;;;;;21.98;35.35;98965.50;4515030;28;20383;-52
2024/03/30 22:03:23;;;;;;;5.32;2.70;;;;;;;21.98;35.11;98959.75;4532034;28;20037;-50
2024/03/30 22:05:36;;;;;;;5.05;2.50;;;;;;;21.99;35.13;98969.19;4521209;28;20119;-53
2024/03/30 22:07:47;;;;;;;4.95;2.78;;;;;;;21.98;35.28;98971.25;4522295;28;20102;-51
2024/03/30 22:09:57;;;;;;;4.93;2.72;;;;;;;21.97;34.68;98975.34;4527982;28;20172;-51
2024/03/30 22:12:08;;;;;;;3.25;2.45;;;;;;;21.97;34.38;98981.09;4533134;28;20041;-52
2024/03/30 22:14:18;;;;;;;6.75;3.47;;;;;;;21.97;34.56;98981.09;4533102;28;20472;-51
2024/03/30 22:16:30;;;;;;;5.88;3.47;;;;;;;21.97;34.12;98986.03;4532559;28;20095;-51
2024/03/30 22:18:40;;;;;;;5.63;3.22;;;;;;;21.97;34.43;98986.03;4525676;28;20045;-50
2024/03/30 22:20:51;;;;;;;5.25;3.47;;;;;;;21.95;34.44;98989.31;4519469;28;20041;-48
2024/03/30 22:23:01;;;;;;;5.25;3.30;;;;;;;21.96;34.99;98984.41;4531684;28;20029;-48
2024/03/30 22:25:11;;;;;;;4.70;2.85;;;;;;;21.96;34.77;98982.31;4532222;28;20033;-50
2024/03/30 22:27:22;;;;;;;4.63;3.13;;;;;;;21.95;34.93;98982.72;4533995;28;20038;-49
2024/03/30 22:29:32;;;;;;;4.30;2.92;;;;;;;21.96;35.34;98993.81;4533124;28;20041;-48
2024/03/30 22:31:43;;;;;;;5.68;2.67;;;;;;;21.96;35.48;98990.13;4531654;28;20386;-51
2024/03/30 22:33:54;;;;;;;4.68;2.90;;;;;;;21.95;35.40;98980.69;4517500;28;20026;-51
2024/03/30 22:36:05;;;;;;;3.72;2.60;;;;;;;21.96;35.50;98985.19;4533738;28;20041;-48
2024/03/30 22:38:16;;;;;;;3.75;2.47;;;;;;;21.95;35.44;98968.38;4535607;28;20041;-50
2024/03/30 22:40:27;;;;;;;4.38;2.65;;;;;;;21.94;34.97;98964.69;4536179;28;20040;-48
2024/03/30 22:42:37;;;;;;;4.07;2.80;;;;;;;21.94;34.96;98961.00;4535567;28;20547;-49
2024/03/30 22:44:53;;;;;;;4.00;2.60;;;;;;;21.93;34.79;98954.44;4535583;28;20492;-50
2024/03/30 22:47:03;;;;;;;4.50;2.70;;;;;;;21.93;35.22;98950.72;4535030;28;20077;-48
2024/03/30 22:49:13;;;;;;;4.75;3.00;;;;;;;21.93;34.85;98957.28;4534976;28;20056;-49
2024/03/30 22:51:24;;;;;;;3.72;2.80;;;;;;;21.93;35.05;98957.28;4536770;28;20540;-49
2024/03/30 22:53:34;;;;;;;4.38;3.00;;;;;;;21.92;35.22;98955.66;4517209;28;20382;-48
2024/03/30 22:55:55;;;;;;;5.28;3.10;;;;;;;21.92;34.91;98955.66;4534679;28;20028;-49
2024/03/30 22:58:06;;;;;;;3.88;2.50;;;;;;;21.92;34.99;98960.59;4533839;28;20048;-50
2024/03/30 23:00:21;;;;;;;6.13;3.00;;;;;;;21.92;35.09;98961.41;4533938;28;23849;-48
2024/03/30 23:02:31;;;;;;;4.65;2.80;;;;;;;21.92;35.02;98961.41;4534353;28;20033;-48
2024/03/30 23:04:42;;;;;;;4.43;2.90;;;;;;;21.90;35.01;98952.38;4533521;28;20044;-48
2024/03/30 23:06:52;;;;;;;4.35;2.63;;;;;;;21.92;34.85;98957.72;4534906;28;20112;-50
2024/03/30 23:09:02;;;;;;;4.80;2.97;;;;;;;21.90;34.80;98938.03;4534042;28;20347;-49
2024/03/30 23:11:13;;;;;;;5.18;3.10;;;;;;;21.90;34.73;98943.78;4535509;28;20516;-48
2024/03/30 23:13:23;;;;;;;5.53;3.00;;;;;;;21.87;34.77;98947.47;4534584;28;20890;-51
2024/03/30 23:15:34;;;;;;;4.95;3.00;;;;;;;21.89;34.84;98945.00;4534352;28;20029;-50
2024/03/30 23:17:44;;;;;;;5.07;2.95;;;;;;;21.90;34.61;98946.66;4535088;28;20124;-50
2024/03/30 23:19:54;;;;;;;5.50;2.83;;;;;;;21.89;35.04;98950.75;4534936;28;20075;-50
2024/03/30 23:22:05;;;;;;;3.45;2.58;;;;;;;21.89;34.95;98950.75;4534840;28;21150;-52
2024/03/30 23:24:15;;;;;;;5.03;2.92;;;;;;;21.90;34.54;98946.66;4533894;28;20465;-49
2024/03/30 23:26:26;;;;;;;4.75;2.92;;;;;;;21.89;34.41;98944.19;4535170;28;20115;-48
2024/03/30 23:28:36;;;;;;;4.75;3.10;;;;;;;21.89;34.46;98950.75;4534415;28;20044;-49
2024/03/30 23:30:46;;;;;;;5.18;2.70;;;;;;;21.88;34.66;98946.22;4535078;28;20490;-49
2024/03/30 23:32:57;;;;;;;6.13;2.60;;;;;;;21.87;34.49;98944.59;4535306;28;20026;-53
2024/03/30 23:35:07;;;;;;;4.85;2.58;;;;;;;21.88;34.53;98940.50;4534221;28;20045;-51
2024/03/30 23:37:17;;;;;;;4.18;3.03;;;;;;;21.87;34.31;98935.16;4535890;28;20116;-50
2024/03/30 23:39:28;;;;;;;4.43;2.83;;;;;;;21.87;34.30;98930.25;4533115;28;23621;-48
2024/03/30 23:41:38;;;;;;;4.78;3.10;;;;;;;21.87;34.59;98941.72;4526533;28;20041;-49
2024/03/30 23:43:48;;;;;;;4.60;3.00;;;;;;;21.86;34.39;98940.09;4533366;28;20037;-48
2024/03/30 23:45:59;;;;;;;5.40;3.13;;;;;;;21.87;34.20;98943.78;4534796;28;20044;-51
2024/03/30 23:48:12;;;;;;;5.25;3.10;;;;;;;21.87;34.33;98949.53;4535000;28;20032;-49
2024/03/30 23:50:23;;;;;;;4.35;2.70;;;;;;;21.85;34.26;98952.81;4534726;28;20097;-48
2024/03/30 23:52:35;;;;;;;5.82;2.70;;;;;;;21.86;33.78;98948.72;4535350;28;20120;-49
2024/03/30 23:54:46;;;;;;;6.07;3.17;;;;;;;21.86;33.78;98942.16;4524621;28;20135;-48
2024/03/30 23:56:56;;;;;;;5.95;3.30;;;;;;;21.86;34.18;98939.28;4530000;28;20132;-51
2024/03/30 23:59:06;;;;;;;4.95;2.97;;;;;;;21.85;34.09;98952.81;4527043;28;20037;-48
